CEB821 RPLL-RPUV
Flight info
| Callsign | CEB821 |
|---|---|
| Flight time | N/A |
| Altitude | 25000 |
| Route | RDVXTIMON/06 TIMON W15 RAGAY W15A NGA |
| Aircraft | A320/M-SDE3FGHIRWY/LB1 |
Departure
| Time | N/A |
|---|---|
| Airport | Ninoy Aquino International Airport (RPLL) |
Arrival
| Time | 2026-04-26 11:39 |
|---|---|
| Airport | Virac Airport (RPUV) |
| Time | Latitude | Longitude | Altitude | Speed | Heading |
|---|---|---|---|---|---|
| 2026-04-26 11:09 | 14.12555 | 121.82355 | 21144 ft | 407 kts | 125° |
| 2026-04-26 11:09 | 14.11023 | 121.84793 | 21640 ft | 408 kts | 125° |
| 2026-04-26 11:09 | 14.09483 | 121.87244 | 22132 ft | 409 kts | 125° |
| 2026-04-26 11:10 | 14.08070 | 121.89493 | 22674 ft | 407 kts | 125° |
| 2026-04-26 11:10 | 14.07308 | 121.90705 | 22989 ft | 405 kts | 125° |
| 2026-04-26 11:10 | 14.03877 | 121.96710 | 24216 ft | 406 kts | 119° |
| 2026-04-26 11:11 | 14.02563 | 121.99348 | 24644 ft | 408 kts | 118° |
| 2026-04-26 11:11 | 14.01280 | 122.01935 | 24880 ft | 409 kts | 118° |
| 2026-04-26 11:11 | 13.99964 | 122.04583 | 24886 ft | 410 kts | 118° |
| 2026-04-26 11:11 | 13.98670 | 122.07181 | 24889 ft | 410 kts | 118° |
| 2026-04-26 11:12 | 13.97354 | 122.09817 | 24890 ft | 410 kts | 119° |
| 2026-04-26 11:12 | 13.96055 | 122.12414 | 24891 ft | 410 kts | 119° |
| 2026-04-26 11:12 | 13.94752 | 122.15019 | 24891 ft | 410 kts | 119° |
| 2026-04-26 11:12 | 13.93443 | 122.17635 | 24891 ft | 410 kts | 119° |
| 2026-04-26 11:13 | 13.92141 | 122.20235 | 24891 ft | 410 kts | 119° |
| 2026-04-26 11:13 | 13.90841 | 122.22835 | 24891 ft | 410 kts | 119° |
| 2026-04-26 11:13 | 13.89529 | 122.25455 | 24891 ft | 410 kts | 119° |
| 2026-04-26 11:13 | 13.88221 | 122.28066 | 24891 ft | 410 kts | 119° |
| 2026-04-26 11:14 | 13.86904 | 122.30693 | 24891 ft | 410 kts | 119° |
| 2026-04-26 11:14 | 13.85593 | 122.33308 | 24891 ft | 410 kts | 119° |
| 2026-04-26 11:14 | 13.84300 | 122.35886 | 24891 ft | 410 kts | 119° |
| 2026-04-26 11:14 | 13.82992 | 122.38493 | 24891 ft | 410 kts | 119° |
| 2026-04-26 11:15 | 13.81681 | 122.41104 | 24891 ft | 410 kts | 119° |
| 2026-04-26 11:15 | 13.80374 | 122.43705 | 24891 ft | 410 kts | 119° |
| 2026-04-26 11:15 | 13.79056 | 122.46328 | 24891 ft | 410 kts | 119° |
| 2026-04-26 11:15 | 13.77749 | 122.48927 | 24891 ft | 410 kts | 119° |
| 2026-04-26 11:16 | 13.76447 | 122.51517 | 24891 ft | 410 kts | 119° |
| 2026-04-26 11:16 | 13.75135 | 122.54127 | 24891 ft | 410 kts | 119° |
| 2026-04-26 11:16 | 13.73889 | 122.56779 | 24890 ft | 411 kts | 115° |
| 2026-04-26 11:16 | 13.72881 | 122.59519 | 24890 ft | 412 kts | 109° |
| 2026-04-26 11:17 | 13.72121 | 122.62350 | 24891 ft | 413 kts | 104° |
| 2026-04-26 11:17 | 13.71490 | 122.65224 | 24891 ft | 413 kts | 104° |
| 2026-04-26 11:17 | 13.70879 | 122.68126 | 24891 ft | 413 kts | 104° |
| 2026-04-26 11:17 | 13.70272 | 122.71011 | 24891 ft | 413 kts | 104° |
| 2026-04-26 11:18 | 13.69658 | 122.73911 | 24891 ft | 413 kts | 104° |
| 2026-04-26 11:18 | 13.69265 | 122.75759 | 24879 ft | 412 kts | 104° |
| 2026-04-26 11:18 | 13.68679 | 122.78507 | 24505 ft | 410 kts | 104° |
| 2026-04-26 11:18 | 13.68059 | 122.81399 | 23474 ft | 420 kts | 104° |
| 2026-04-26 11:19 | 13.67431 | 122.84316 | 22461 ft | 428 kts | 104° |
| 2026-04-26 11:19 | 13.66794 | 122.87280 | 21597 ft | 431 kts | 104° |
| 2026-04-26 11:19 | 13.66145 | 122.90301 | 20930 ft | 428 kts | 104° |
| 2026-04-26 11:19 | 13.65509 | 122.93258 | 20361 ft | 423 kts | 104° |
| 2026-04-26 11:20 | 13.64869 | 122.96234 | 19741 ft | 420 kts | 103° |
| 2026-04-26 11:20 | 13.64242 | 122.99144 | 19120 ft | 417 kts | 103° |
| 2026-04-26 11:20 | 13.63619 | 123.02031 | 18512 ft | 414 kts | 103° |
| 2026-04-26 11:20 | 13.62990 | 123.04945 | 17902 ft | 411 kts | 103° |
| 2026-04-26 11:21 | 13.62373 | 123.07803 | 17307 ft | 408 kts | 103° |
| 2026-04-26 11:21 | 13.61764 | 123.10619 | 16726 ft | 406 kts | 103° |
| 2026-04-26 11:21 | 13.61153 | 123.13446 | 16155 ft | 403 kts | 103° |
| 2026-04-26 11:21 | 13.60859 | 123.14804 | 15847 ft | 402 kts | 103° |
| 2026-04-26 11:23 | 13.60804 | 123.15060 | 15785 ft | 402 kts | 103° |
| 2026-04-26 11:23 | 13.60199 | 123.17852 | 15160 ft | 401 kts | 103° |
| 2026-04-26 11:24 | 13.59914 | 123.19168 | 14891 ft | 400 kts | 103° |
| 2026-04-26 11:24 | 13.59791 | 123.19734 | 14778 ft | 399 kts | 103° |
| 2026-04-26 11:24 | 13.59195 | 123.22487 | 14242 ft | 396 kts | 103° |
| 2026-04-26 11:24 | 13.58614 | 123.25264 | 13712 ft | 392 kts | 100° |
| 2026-04-26 11:25 | 13.58210 | 123.27990 | 13202 ft | 388 kts | 96° |
| 2026-04-26 11:25 | 13.57990 | 123.30743 | 12701 ft | 384 kts | 93° |
| 2026-04-26 11:25 | 13.57833 | 123.33472 | 12214 ft | 379 kts | 92° |
| 2026-04-26 11:25 | 13.57686 | 123.36159 | 11743 ft | 375 kts | 92° |
| 2026-04-26 11:26 | 13.57540 | 123.38805 | 11297 ft | 369 kts | 92° |
| 2026-04-26 11:26 | 13.57393 | 123.41430 | 10860 ft | 364 kts | 92° |
| 2026-04-26 11:26 | 13.57248 | 123.43983 | 10464 ft | 358 kts | 92° |
| 2026-04-26 11:26 | 13.57101 | 123.46526 | 10200 ft | 346 kts | 91° |
| 2026-04-26 11:27 | 13.56959 | 123.48963 | 10137 ft | 330 kts | 91° |
| 2026-04-26 11:27 | 13.56827 | 123.51248 | 10076 ft | 315 kts | 91° |
| 2026-04-26 11:27 | 13.56700 | 123.53453 | 10007 ft | 301 kts | 91° |
| 2026-04-26 11:27 | 13.56575 | 123.55579 | 9675 ft | 299 kts | 91° |
| 2026-04-26 11:28 | 13.56452 | 123.57688 | 9319 ft | 297 kts | 91° |
| 2026-04-26 11:28 | 13.56330 | 123.59772 | 9006 ft | 294 kts | 91° |
| 2026-04-26 11:28 | 13.56207 | 123.61877 | 8688 ft | 290 kts | 90° |
| 2026-04-26 11:28 | 13.56088 | 123.63937 | 8399 ft | 286 kts | 90° |
| 2026-04-26 11:29 | 13.55968 | 123.65987 | 8074 ft | 284 kts | 91° |
| 2026-04-26 11:29 | 13.55848 | 123.68027 | 7760 ft | 281 kts | 91° |
| 2026-04-26 11:29 | 13.55735 | 123.69948 | 7469 ft | 278 kts | 90° |
| 2026-04-26 11:29 | 13.55617 | 123.71967 | 7143 ft | 276 kts | 90° |
| 2026-04-26 11:30 | 13.55502 | 123.73950 | 6838 ft | 273 kts | 90° |
| 2026-04-26 11:30 | 13.55425 | 123.75249 | 6635 ft | 272 kts | 91° |
| 2026-04-26 11:30 | 13.55273 | 123.77824 | 6232 ft | 269 kts | 90° |
| 2026-04-26 11:30 | 13.55162 | 123.79716 | 5940 ft | 266 kts | 90° |
| 2026-04-26 11:31 | 13.55051 | 123.81613 | 5648 ft | 263 kts | 91° |
| 2026-04-26 11:31 | 13.54941 | 123.83485 | 5348 ft | 262 kts | 91° |
| 2026-04-26 11:31 | 13.54831 | 123.85346 | 5035 ft | 261 kts | 91° |
| 2026-04-26 11:31 | 13.54774 | 123.86297 | 4871 ft | 259 kts | 91° |
| 2026-04-26 11:32 | 13.54663 | 123.88152 | 4571 ft | 257 kts | 91° |
| 2026-04-26 11:32 | 13.54553 | 123.89964 | 4258 ft | 254 kts | 91° |
| 2026-04-26 11:32 | 13.54446 | 123.91775 | 3977 ft | 252 kts | 92° |
| 2026-04-26 11:32 | 13.54338 | 123.93581 | 3661 ft | 251 kts | 91° |
| 2026-04-26 11:33 | 13.54229 | 123.95367 | 3406 ft | 247 kts | 92° |
| 2026-04-26 11:33 | 13.54126 | 123.97084 | 3383 ft | 233 kts | 91° |
| 2026-04-26 11:33 | 13.54071 | 123.97975 | 3364 ft | 225 kts | 91° |
| 2026-04-26 11:33 | 13.54003 | 123.99049 | 3345 ft | 216 kts | 91° |
| 2026-04-26 11:34 | 13.53914 | 124.00555 | 3316 ft | 203 kts | 92° |
| 2026-04-26 11:34 | 13.53852 | 124.01587 | 3290 ft | 203 kts | 91° |
| 2026-04-26 11:34 | 13.53778 | 124.02849 | 3264 ft | 196 kts | 91° |
| 2026-04-26 11:34 | 13.53777 | 124.02856 | 3264 ft | 196 kts | 91° |
| 2026-04-26 11:35 | 13.53694 | 124.04202 | 3142 ft | 183 kts | 91° |
| 2026-04-26 11:35 | 13.53618 | 124.05466 | 2980 ft | 170 kts | 91° |
| 2026-04-26 11:35 | 13.53543 | 124.06624 | 2825 ft | 154 kts | 90° |
| 2026-04-26 11:35 | 13.53476 | 124.07700 | 2556 ft | 145 kts | 90° |
| 2026-04-26 11:36 | 13.53418 | 124.08704 | 2340 ft | 138 kts | 90° |
| 2026-04-26 11:36 | 13.53361 | 124.09699 | 2159 ft | 138 kts | 91° |
| 2026-04-26 11:36 | 13.53303 | 124.10689 | 1974 ft | 138 kts | 90° |
| 2026-04-26 11:36 | 13.53244 | 124.11665 | 1799 ft | 137 kts | 91° |
| 2026-04-26 11:37 | 13.53369 | 124.12631 | 1700 ft | 137 kts | 65° |
| 2026-04-26 11:37 | 13.53808 | 124.13500 | 1500 ft | 137 kts | 59° |
| 2026-04-26 11:37 | 13.54289 | 124.14344 | 1311 ft | 136 kts | 59° |
| 2026-04-26 11:37 | 13.54770 | 124.15190 | 1149 ft | 136 kts | 60° |
| 2026-04-26 11:38 | 13.55234 | 124.16038 | 994 ft | 136 kts | 60° |
| 2026-04-26 11:38 | 13.55695 | 124.16887 | 842 ft | 135 kts | 60° |
| 2026-04-26 11:38 | 13.56183 | 124.17718 | 657 ft | 135 kts | 60° |
| 2026-04-26 11:38 | 13.56643 | 124.18562 | 478 ft | 134 kts | 62° |
| 2026-04-26 11:39 | 13.57102 | 124.19401 | 285 ft | 133 kts | 60° |
| 2026-04-26 11:39 | 13.57542 | 124.20219 | 162 ft | 118 kts | 60° |
| 2026-04-26 11:39 | 13.57801 | 124.20682 | 162 ft | 31 kts | 59° |
| 2026-04-26 11:39 | 13.57893 | 124.20845 | 162 ft | 21 kts | 59° |
| 2026-04-26 11:40 | 13.57939 | 124.20927 | 162 ft | 11 kts | 60° |
| 2026-04-26 11:40 | 13.57981 | 124.21003 | 162 ft | 12 kts | 60° |
| 2026-04-26 11:40 | 13.58023 | 124.21081 | 162 ft | 12 kts | 60° |
| 2026-04-26 11:40 | 13.58061 | 124.21148 | 162 ft | 6 kts | 60° |
| 2026-04-26 11:41 | 13.58075 | 124.21178 | 162 ft | 3 kts | 81° |
| 2026-04-26 11:42 | 13.57944 | 124.21172 | 162 ft | 0 kts | 178° |